sensor_id;sensor_type;location;lat;lon;timestamp;P1;durP1;ratioP1;P2;durP2;ratioP2
7831;SDS011;3961;42.058;25.586;2023-04-08T00:00:06;22.57;;;16.23;;
7831;SDS011;3961;42.058;25.586;2023-04-08T00:02:32;24.00;;;16.10;;
7831;SDS011;3961;42.058;25.586;2023-04-08T00:04:58;21.77;;;15.07;;
7831;SDS011;3961;42.058;25.586;2023-04-08T00:07:23;22.80;;;16.17;;
7831;SDS011;3961;42.058;25.586;2023-04-08T00:09:49;23.97;;;15.87;;
7831;SDS011;3961;42.058;25.586;2023-04-08T00:12:15;23.40;;;17.07;;
7831;SDS011;3961;42.058;25.586;2023-04-08T00:14:40;24.30;;;17.13;;
7831;SDS011;3961;42.058;25.586;2023-04-08T00:17:06;24.57;;;17.80;;
7831;SDS011;3961;42.058;25.586;2023-04-08T00:19:32;23.93;;;16.37;;
7831;SDS011;3961;42.058;25.586;2023-04-08T00:21:58;23.27;;;16.27;;
7831;SDS011;3961;42.058;25.586;2023-04-08T00:24:24;24.17;;;16.80;;
7831;SDS011;3961;42.058;25.586;2023-04-08T00:26:50;27.10;;;17.53;;
7831;SDS011;3961;42.058;25.586;2023-04-08T00:29:16;24.77;;;17.10;;
7831;SDS011;3961;42.058;25.586;2023-04-08T00:31:42;24.77;;;17.57;;
7831;SDS011;3961;42.058;25.586;2023-04-08T00:34:07;26.77;;;17.77;;
7831;SDS011;3961;42.058;25.586;2023-04-08T00:36:33;26.43;;;19.27;;
7831;SDS011;3961;42.058;25.586;2023-04-08T00:39:00;28.33;;;17.43;;
7831;SDS011;3961;42.058;25.586;2023-04-08T00:41:26;30.63;;;18.40;;
7831;SDS011;3961;42.058;25.586;2023-04-08T00:43:52;28.03;;;20.70;;
7831;SDS011;3961;42.058;25.586;2023-04-08T00:46:18;26.53;;;19.27;;
7831;SDS011;3961;42.058;25.586;2023-04-08T00:48:44;32.70;;;21.83;;
7831;SDS011;3961;42.058;25.586;2023-04-08T00:51:09;29.93;;;19.70;;
7831;SDS011;3961;42.058;25.586;2023-04-08T00:53:35;30.10;;;20.73;;
7831;SDS011;3961;42.058;25.586;2023-04-08T00:56:01;33.70;;;19.80;;
7831;SDS011;3961;42.058;25.586;2023-04-08T00:58:27;28.80;;;20.27;;
7831;SDS011;3961;42.058;25.586;2023-04-08T01:00:59;31.67;;;21.47;;
7831;SDS011;3961;42.058;25.586;2023-04-08T01:03:41;32.93;;;22.63;;
7831;SDS011;3961;42.058;25.586;2023-04-08T01:06:31;35.10;;;21.77;;
7831;SDS011;3961;42.058;25.586;2023-04-08T01:09:18;33.60;;;21.97;;
7831;SDS011;3961;42.058;25.586;2023-04-08T01:11:48;32.80;;;22.13;;
7831;SDS011;3961;42.058;25.586;2023-04-08T01:14:16;30.93;;;21.27;;
7831;SDS011;3961;42.058;25.586;2023-04-08T01:16:45;30.63;;;21.97;;
7831;SDS011;3961;42.058;25.586;2023-04-08T01:19:16;35.07;;;21.57;;
7831;SDS011;3961;42.058;25.586;2023-04-08T01:21:48;35.53;;;23.17;;
7831;SDS011;3961;42.058;25.586;2023-04-08T01:24:22;32.23;;;22.63;;
7831;SDS011;3961;42.058;25.586;2023-04-08T01:26:52;35.90;;;22.50;;
7831;SDS011;3961;42.058;25.586;2023-04-08T01:29:21;33.67;;;21.97;;
7831;SDS011;3961;42.058;25.586;2023-04-08T01:31:49;31.07;;;21.43;;
7831;SDS011;3961;42.058;25.586;2023-04-08T01:34:15;36.17;;;22.33;;
7831;SDS011;3961;42.058;25.586;2023-04-08T01:36:44;32.43;;;20.83;;
7831;SDS011;3961;42.058;25.586;2023-04-08T01:39:11;29.60;;;20.20;;
7831;SDS011;3961;42.058;25.586;2023-04-08T01:41:38;33.20;;;21.10;;
7831;SDS011;3961;42.058;25.586;2023-04-08T01:44:04;30.57;;;20.50;;
7831;SDS011;3961;42.058;25.586;2023-04-08T01:46:30;30.23;;;20.50;;
7831;SDS011;3961;42.058;25.586;2023-04-08T01:48:57;29.77;;;20.67;;
7831;SDS011;3961;42.058;25.586;2023-04-08T01:51:24;29.93;;;19.37;;
7831;SDS011;3961;42.058;25.586;2023-04-08T01:53:51;34.03;;;20.97;;
7831;SDS011;3961;42.058;25.586;2023-04-08T01:56:16;32.37;;;20.20;;
7831;SDS011;3961;42.058;25.586;2023-04-08T01:58:47;32.47;;;19.63;;
7831;SDS011;3961;42.058;25.586;2023-04-08T02:01:18;31.90;;;19.10;;
7831;SDS011;3961;42.058;25.586;2023-04-08T02:03:46;28.13;;;17.80;;
7831;SDS011;3961;42.058;25.586;2023-04-08T02:06:16;26.80;;;19.80;;
7831;SDS011;3961;42.058;25.586;2023-04-08T02:08:42;27.40;;;17.63;;
7831;SDS011;3961;42.058;25.586;2023-04-08T02:11:07;27.53;;;17.97;;
7831;SDS011;3961;42.058;25.586;2023-04-08T02:13:33;27.63;;;17.40;;
7831;SDS011;3961;42.058;25.586;2023-04-08T02:16:03;24.23;;;17.13;;
7831;SDS011;3961;42.058;25.586;2023-04-08T02:18:35;28.20;;;17.73;;
7831;SDS011;3961;42.058;25.586;2023-04-08T02:21:07;24.23;;;15.77;;
7831;SDS011;3961;42.058;25.586;2023-04-08T02:23:37;23.93;;;16.30;;
7831;SDS011;3961;42.058;25.586;2023-04-08T02:26:05;24.53;;;16.43;;
7831;SDS011;3961;42.058;25.586;2023-04-08T02:28:33;28.07;;;16.83;;
7831;SDS011;3961;42.058;25.586;2023-04-08T02:30:59;24.80;;;15.33;;
7831;SDS011;3961;42.058;25.586;2023-04-08T02:33:27;23.57;;;16.50;;
7831;SDS011;3961;42.058;25.586;2023-04-08T02:35:53;20.90;;;15.30;;
7831;SDS011;3961;42.058;25.586;2023-04-08T02:38:21;21.70;;;15.27;;
7831;SDS011;3961;42.058;25.586;2023-04-08T02:40:51;22.30;;;14.73;;
7831;SDS011;3961;42.058;25.586;2023-04-08T02:43:16;24.13;;;15.63;;
7831;SDS011;3961;42.058;25.586;2023-04-08T02:45:42;21.53;;;15.17;;
7831;SDS011;3961;42.058;25.586;2023-04-08T02:48:09;21.80;;;15.40;;
7831;SDS011;3961;42.058;25.586;2023-04-08T02:50:34;23.90;;;15.63;;
7831;SDS011;3961;42.058;25.586;2023-04-08T02:53:00;28.33;;;15.33;;
7831;SDS011;3961;42.058;25.586;2023-04-08T02:55:26;21.43;;;16.00;;
7831;SDS011;3961;42.058;25.586;2023-04-08T02:57:52;25.60;;;16.50;;
7831;SDS011;3961;42.058;25.586;2023-04-08T03:00:17;21.33;;;15.40;;
7831;SDS011;3961;42.058;25.586;2023-04-08T03:02:43;22.73;;;16.57;;
7831;SDS011;3961;42.058;25.586;2023-04-08T03:05:08;21.30;;;14.80;;
7831;SDS011;3961;42.058;25.586;2023-04-08T03:07:34;23.07;;;15.43;;
7831;SDS011;3961;42.058;25.586;2023-04-08T03:10:00;23.50;;;15.97;;
7831;SDS011;3961;42.058;25.586;2023-04-08T03:12:27;22.60;;;15.07;;
7831;SDS011;3961;42.058;25.586;2023-04-08T03:14:53;24.53;;;16.60;;
7831;SDS011;3961;42.058;25.586;2023-04-08T03:17:19;22.97;;;15.57;;
7831;SDS011;3961;42.058;25.586;2023-04-08T03:19:45;25.07;;;16.23;;
7831;SDS011;3961;42.058;25.586;2023-04-08T03:22:11;26.30;;;16.23;;
7831;SDS011;3961;42.058;25.586;2023-04-08T03:24:37;22.67;;;16.30;;
7831;SDS011;3961;42.058;25.586;2023-04-08T03:27:03;24.30;;;15.33;;
7831;SDS011;3961;42.058;25.586;2023-04-08T03:29:28;22.17;;;16.37;;
7831;SDS011;3961;42.058;25.586;2023-04-08T03:31:54;23.77;;;15.23;;
7831;SDS011;3961;42.058;25.586;2023-04-08T03:34:19;24.67;;;16.53;;
7831;SDS011;3961;42.058;25.586;2023-04-08T03:36:45;25.47;;;16.30;;
7831;SDS011;3961;42.058;25.586;2023-04-08T03:39:10;25.80;;;16.90;;
7831;SDS011;3961;42.058;25.586;2023-04-08T03:41:36;23.57;;;15.97;;
7831;SDS011;3961;42.058;25.586;2023-04-08T03:44:01;23.43;;;16.30;;
7831;SDS011;3961;42.058;25.586;2023-04-08T03:46:27;25.60;;;17.77;;
7831;SDS011;3961;42.058;25.586;2023-04-08T03:48:53;24.13;;;16.60;;
7831;SDS011;3961;42.058;25.586;2023-04-08T03:51:18;25.83;;;16.27;;
7831;SDS011;3961;42.058;25.586;2023-04-08T03:53:44;22.90;;;16.10;;
7831;SDS011;3961;42.058;25.586;2023-04-08T03:56:09;23.90;;;16.23;;
7831;SDS011;3961;42.058;25.586;2023-04-08T03:58:35;25.90;;;17.23;;
7831;SDS011;3961;42.058;25.586;2023-04-08T04:01:00;25.03;;;16.53;;
7831;SDS011;3961;42.058;25.586;2023-04-08T04:03:26;25.47;;;17.13;;
7831;SDS011;3961;42.058;25.586;2023-04-08T04:05:51;25.87;;;16.80;;
7831;SDS011;3961;42.058;25.586;2023-04-08T04:08:17;23.50;;;16.47;;
7831;SDS011;3961;42.058;25.586;2023-04-08T04:10:42;25.50;;;17.70;;
7831;SDS011;3961;42.058;25.586;2023-04-08T04:13:08;24.00;;;17.17;;
7831;SDS011;3961;42.058;25.586;2023-04-08T04:15:37;23.77;;;15.63;;
7831;SDS011;3961;42.058;25.586;2023-04-08T04:18:03;25.63;;;17.70;;
7831;SDS011;3961;42.058;25.586;2023-04-08T04:20:29;24.97;;;15.87;;
7831;SDS011;3961;42.058;25.586;2023-04-08T04:22:54;26.50;;;17.27;;
7831;SDS011;3961;42.058;25.586;2023-04-08T04:25:20;27.17;;;18.03;;
7831;SDS011;3961;42.058;25.586;2023-04-08T04:27:45;28.90;;;16.80;;
7831;SDS011;3961;42.058;25.586;2023-04-08T04:30:11;23.77;;;17.10;;
7831;SDS011;3961;42.058;25.586;2023-04-08T04:32:39;29.07;;;16.67;;
7831;SDS011;3961;42.058;25.586;2023-04-08T04:35:07;25.93;;;16.50;;
7831;SDS011;3961;42.058;25.586;2023-04-08T04:37:33;29.60;;;17.63;;
7831;SDS011;3961;42.058;25.586;2023-04-08T04:39:59;25.80;;;17.00;;
7831;SDS011;3961;42.058;25.586;2023-04-08T04:42:25;24.30;;;15.73;;
7831;SDS011;3961;42.058;25.586;2023-04-08T04:44:50;20.90;;;14.97;;
7831;SDS011;3961;42.058;25.586;2023-04-08T04:47:16;22.50;;;14.57;;
7831;SDS011;3961;42.058;25.586;2023-04-08T04:49:41;22.43;;;15.47;;
7831;SDS011;3961;42.058;25.586;2023-04-08T04:52:07;24.43;;;15.60;;
7831;SDS011;3961;42.058;25.586;2023-04-08T04:54:32;21.17;;;16.33;;
7831;SDS011;3961;42.058;25.586;2023-04-08T04:56:58;25.53;;;16.47;;
7831;SDS011;3961;42.058;25.586;2023-04-08T04:59:23;26.63;;;17.30;;
7831;SDS011;3961;42.058;25.586;2023-04-08T05:01:49;26.13;;;16.80;;
7831;SDS011;3961;42.058;25.586;2023-04-08T05:04:14;27.27;;;17.07;;
7831;SDS011;3961;42.058;25.586;2023-04-08T05:06:40;34.43;;;17.10;;
7831;SDS011;3961;42.058;25.586;2023-04-08T05:09:05;24.03;;;16.43;;
7831;SDS011;3961;42.058;25.586;2023-04-08T05:11:31;28.47;;;17.93;;
7831;SDS011;3961;42.058;25.586;2023-04-08T05:13:56;27.23;;;16.77;;
7831;SDS011;3961;42.058;25.586;2023-04-08T05:16:22;23.20;;;17.53;;
7831;SDS011;3961;42.058;25.586;2023-04-08T05:18:47;24.60;;;17.40;;
7831;SDS011;3961;42.058;25.586;2023-04-08T05:21:13;25.80;;;16.27;;
7831;SDS011;3961;42.058;25.586;2023-04-08T05:23:38;30.27;;;18.17;;
7831;SDS011;3961;42.058;25.586;2023-04-08T05:26:05;26.30;;;17.70;;
7831;SDS011;3961;42.058;25.586;2023-04-08T05:28:33;25.57;;;17.37;;
7831;SDS011;3961;42.058;25.586;2023-04-08T05:30:58;27.43;;;17.67;;
7831;SDS011;3961;42.058;25.586;2023-04-08T05:33:24;26.90;;;17.07;;
7831;SDS011;3961;42.058;25.586;2023-04-08T05:35:50;23.90;;;17.50;;
7831;SDS011;3961;42.058;25.586;2023-04-08T05:38:17;24.97;;;16.40;;
7831;SDS011;3961;42.058;25.586;2023-04-08T05:40:43;26.73;;;17.07;;
7831;SDS011;3961;42.058;25.586;2023-04-08T05:43:08;27.10;;;17.70;;
7831;SDS011;3961;42.058;25.586;2023-04-08T05:45:34;26.67;;;16.23;;
7831;SDS011;3961;42.058;25.586;2023-04-08T05:48:00;27.33;;;18.47;;
7831;SDS011;3961;42.058;25.586;2023-04-08T05:50:25;26.93;;;17.43;;
7831;SDS011;3961;42.058;25.586;2023-04-08T05:52:51;26.63;;;18.43;;
7831;SDS011;3961;42.058;25.586;2023-04-08T05:55:16;33.03;;;18.97;;
7831;SDS011;3961;42.058;25.586;2023-04-08T05:57:42;34.17;;;19.00;;
7831;SDS011;3961;42.058;25.586;2023-04-08T06:00:08;26.73;;;17.23;;
7831;SDS011;3961;42.058;25.586;2023-04-08T06:02:34;25.93;;;17.67;;
7831;SDS011;3961;42.058;25.586;2023-04-08T06:05:01;28.03;;;17.23;;
7831;SDS011;3961;42.058;25.586;2023-04-08T06:07:27;39.47;;;20.83;;
7831;SDS011;3961;42.058;25.586;2023-04-08T06:09:53;30.37;;;19.87;;
7831;SDS011;3961;42.058;25.586;2023-04-08T06:12:19;26.60;;;18.77;;
7831;SDS011;3961;42.058;25.586;2023-04-08T06:14:45;29.97;;;18.23;;
7831;SDS011;3961;42.058;25.586;2023-04-08T06:17:10;29.73;;;18.87;;
7831;SDS011;3961;42.058;25.586;2023-04-08T06:19:36;27.37;;;18.03;;
7831;SDS011;3961;42.058;25.586;2023-04-08T06:22:01;30.70;;;19.13;;
7831;SDS011;3961;42.058;25.586;2023-04-08T06:24:27;27.47;;;19.67;;
7831;SDS011;3961;42.058;25.586;2023-04-08T06:26:53;29.73;;;19.53;;
7831;SDS011;3961;42.058;25.586;2023-04-08T06:29:20;30.40;;;21.03;;
7831;SDS011;3961;42.058;25.586;2023-04-08T06:31:47;34.77;;;20.93;;
7831;SDS011;3961;42.058;25.586;2023-04-08T06:34:12;31.90;;;19.50;;
7831;SDS011;3961;42.058;25.586;2023-04-08T06:36:38;29.93;;;20.47;;
7831;SDS011;3961;42.058;25.586;2023-04-08T06:39:03;32.13;;;20.93;;
7831;SDS011;3961;42.058;25.586;2023-04-08T06:41:29;27.77;;;18.83;;
7831;SDS011;3961;42.058;25.586;2023-04-08T06:43:55;30.53;;;19.17;;
7831;SDS011;3961;42.058;25.586;2023-04-08T06:46:21;33.33;;;22.03;;
7831;SDS011;3961;42.058;25.586;2023-04-08T06:48:46;32.73;;;21.13;;
7831;SDS011;3961;42.058;25.586;2023-04-08T06:51:12;32.27;;;20.77;;
7831;SDS011;3961;42.058;25.586;2023-04-08T06:53:37;37.87;;;22.23;;
7831;SDS011;3961;42.058;25.586;2023-04-08T06:56:03;37.03;;;21.93;;
7831;SDS011;3961;42.058;25.586;2023-04-08T06:58:29;34.27;;;21.93;;
7831;SDS011;3961;42.058;25.586;2023-04-08T07:00:54;38.77;;;21.50;;
7831;SDS011;3961;42.058;25.586;2023-04-08T07:03:20;37.10;;;22.77;;
7831;SDS011;3961;42.058;25.586;2023-04-08T07:05:46;34.37;;;21.70;;
7831;SDS011;3961;42.058;25.586;2023-04-08T07:08:12;36.37;;;21.83;;
7831;SDS011;3961;42.058;25.586;2023-04-08T07:10:37;37.87;;;23.77;;
7831;SDS011;3961;42.058;25.586;2023-04-08T07:13:03;38.53;;;22.60;;
7831;SDS011;3961;42.058;25.586;2023-04-08T07:15:28;38.27;;;23.57;;
7831;SDS011;3961;42.058;25.586;2023-04-08T07:17:54;45.37;;;25.57;;
7831;SDS011;3961;42.058;25.586;2023-04-08T07:20:23;51.30;;;30.97;;
7831;SDS011;3961;42.058;25.586;2023-04-08T07:22:50;46.80;;;29.97;;
7831;SDS011;3961;42.058;25.586;2023-04-08T07:25:16;54.83;;;33.23;;
7831;SDS011;3961;42.058;25.586;2023-04-08T07:27:41;42.90;;;28.23;;
7831;SDS011;3961;42.058;25.586;2023-04-08T07:30:07;49.13;;;28.70;;
7831;SDS011;3961;42.058;25.586;2023-04-08T07:32:33;37.93;;;25.30;;
7831;SDS011;3961;42.058;25.586;2023-04-08T07:34:59;43.93;;;27.13;;
7831;SDS011;3961;42.058;25.586;2023-04-08T07:37:25;43.37;;;28.10;;
7831;SDS011;3961;42.058;25.586;2023-04-08T07:39:51;40.60;;;28.13;;
7831;SDS011;3961;42.058;25.586;2023-04-08T07:42:17;41.90;;;26.17;;
7831;SDS011;3961;42.058;25.586;2023-04-08T07:44:42;44.00;;;28.07;;
7831;SDS011;3961;42.058;25.586;2023-04-08T07:47:10;32.87;;;23.00;;
7831;SDS011;3961;42.058;25.586;2023-04-08T07:49:36;37.23;;;25.20;;
7831;SDS011;3961;42.058;25.586;2023-04-08T07:52:02;38.37;;;25.70;;
7831;SDS011;3961;42.058;25.586;2023-04-08T07:54:30;33.57;;;21.57;;
7831;SDS011;3961;42.058;25.586;2023-04-08T07:56:55;34.10;;;22.63;;
7831;SDS011;3961;42.058;25.586;2023-04-08T07:59:21;31.60;;;22.63;;
7831;SDS011;3961;42.058;25.586;2023-04-08T08:01:47;26.80;;;18.63;;
7831;SDS011;3961;42.058;25.586;2023-04-08T08:04:12;27.43;;;18.70;;
7831;SDS011;3961;42.058;25.586;2023-04-08T08:06:38;26.13;;;19.27;;
7831;SDS011;3961;42.058;25.586;2023-04-08T08:09:03;28.37;;;19.43;;
7831;SDS011;3961;42.058;25.586;2023-04-08T08:11:29;25.70;;;18.73;;
7831;SDS011;3961;42.058;25.586;2023-04-08T08:13:54;23.73;;;16.80;;
7831;SDS011;3961;42.058;25.586;2023-04-08T08:16:21;24.47;;;17.57;;
7831;SDS011;3961;42.058;25.586;2023-04-08T08:18:47;28.63;;;16.73;;
7831;SDS011;3961;42.058;25.586;2023-04-08T08:21:12;32.43;;;21.93;;
7831;SDS011;3961;42.058;25.586;2023-04-08T08:23:38;33.60;;;23.77;;
7831;SDS011;3961;42.058;25.586;2023-04-08T08:26:04;34.40;;;23.30;;
7831;SDS011;3961;42.058;25.586;2023-04-08T08:28:31;34.17;;;19.70;;
7831;SDS011;3961;42.058;25.586;2023-04-08T08:30:57;30.83;;;20.23;;
7831;SDS011;3961;42.058;25.586;2023-04-08T08:33:23;36.33;;;21.33;;
7831;SDS011;3961;42.058;25.586;2023-04-08T08:35:49;26.53;;;20.73;;
7831;SDS011;3961;42.058;25.586;2023-04-08T08:38:16;21.00;;;15.43;;
7831;SDS011;3961;42.058;25.586;2023-04-08T08:40:43;23.33;;;15.27;;
7831;SDS011;3961;42.058;25.586;2023-04-08T08:43:09;30.03;;;16.80;;
7831;SDS011;3961;42.058;25.586;2023-04-08T08:45:39;25.87;;;15.77;;
7831;SDS011;3961;42.058;25.586;2023-04-08T08:48:05;22.73;;;15.67;;
7831;SDS011;3961;42.058;25.586;2023-04-08T08:50:32;21.93;;;15.30;;
7831;SDS011;3961;42.058;25.586;2023-04-08T08:52:59;23.23;;;17.10;;
7831;SDS011;3961;42.058;25.586;2023-04-08T08:55:25;25.03;;;18.60;;
7831;SDS011;3961;42.058;25.586;2023-04-08T08:57:50;28.97;;;18.80;;
7831;SDS011;3961;42.058;25.586;2023-04-08T09:00:16;27.53;;;18.17;;
7831;SDS011;3961;42.058;25.586;2023-04-08T09:02:42;20.47;;;16.33;;
7831;SDS011;3961;42.058;25.586;2023-04-08T09:05:08;19.60;;;14.47;;
7831;SDS011;3961;42.058;25.586;2023-04-08T09:07:37;27.00;;;14.70;;
7831;SDS011;3961;42.058;25.586;2023-04-08T09:10:06;19.47;;;13.37;;
7831;SDS011;3961;42.058;25.586;2023-04-08T09:12:32;18.37;;;12.97;;
7831;SDS011;3961;42.058;25.586;2023-04-08T09:15:04;20.10;;;13.67;;
7831;SDS011;3961;42.058;25.586;2023-04-08T09:17:35;19.27;;;13.50;;
7831;SDS011;3961;42.058;25.586;2023-04-08T09:20:05;17.27;;;12.60;;
7831;SDS011;3961;42.058;25.586;2023-04-08T09:25:21;17.57;;;12.90;;
7831;SDS011;3961;42.058;25.586;2023-04-08T09:27:51;16.73;;;13.00;;
7831;SDS011;3961;42.058;25.586;2023-04-08T09:30:19;14.50;;;11.47;;
7831;SDS011;3961;42.058;25.586;2023-04-08T09:32:55;21.37;;;16.00;;
7831;SDS011;3961;42.058;25.586;2023-04-08T09:35:22;25.80;;;15.50;;
7831;SDS011;3961;42.058;25.586;2023-04-08T09:37:49;25.53;;;18.13;;
7831;SDS011;3961;42.058;25.586;2023-04-08T09:40:16;25.83;;;19.97;;
7831;SDS011;3961;42.058;25.586;2023-04-08T09:42:46;20.83;;;15.73;;
7831;SDS011;3961;42.058;25.586;2023-04-08T09:45:15;19.00;;;14.43;;
7831;SDS011;3961;42.058;25.586;2023-04-08T09:50:42;26.00;;;17.30;;
7831;SDS011;3961;42.058;25.586;2023-04-08T09:53:25;21.13;;;14.63;;
7831;SDS011;3961;42.058;25.586;2023-04-08T09:56:01;23.57;;;16.87;;
7831;SDS011;3961;42.058;25.586;2023-04-08T09:58:38;23.37;;;16.80;;
7831;SDS011;3961;42.058;25.586;2023-04-08T10:01:06;18.47;;;14.33;;
7831;SDS011;3961;42.058;25.586;2023-04-08T10:03:48;13.60;;;9.87;;
7831;SDS011;3961;42.058;25.586;2023-04-08T10:06:16;14.23;;;9.43;;
7831;SDS011;3961;42.058;25.586;2023-04-08T10:08:43;12.80;;;9.53;;
7831;SDS011;3961;42.058;25.586;2023-04-08T10:11:09;13.60;;;9.90;;
7831;SDS011;3961;42.058;25.586;2023-04-08T10:13:35;15.20;;;9.13;;
7831;SDS011;3961;42.058;25.586;2023-04-08T10:16:17;12.60;;;9.07;;
7831;SDS011;3961;42.058;25.586;2023-04-08T10:18:44;11.93;;;9.83;;
7831;SDS011;3961;42.058;25.586;2023-04-08T10:24:08;12.67;;;8.73;;
7831;SDS011;3961;42.058;25.586;2023-04-08T10:26:44;15.10;;;9.50;;
7831;SDS011;3961;42.058;25.586;2023-04-08T10:31:41;14.07;;;10.07;;
7831;SDS011;3961;42.058;25.586;2023-04-08T10:34:19;13.67;;;10.10;;
7831;SDS011;3961;42.058;25.586;2023-04-08T10:36:47;11.30;;;7.97;;
7831;SDS011;3961;42.058;25.586;2023-04-08T10:39:14;10.33;;;8.10;;
7831;SDS011;3961;42.058;25.586;2023-04-08T10:41:43;13.07;;;7.57;;
7831;SDS011;3961;42.058;25.586;2023-04-08T10:46:44;12.70;;;8.30;;
7831;SDS011;3961;42.058;25.586;2023-04-08T10:49:16;9.53;;;7.93;;
7831;SDS011;3961;42.058;25.586;2023-04-08T10:51:43;13.00;;;8.03;;
7831;SDS011;3961;42.058;25.586;2023-04-08T10:54:10;12.00;;;8.63;;
7831;SDS011;3961;42.058;25.586;2023-04-08T10:56:44;10.43;;;8.10;;
7831;SDS011;3961;42.058;25.586;2023-04-08T10:59:10;18.33;;;13.43;;
7831;SDS011;3961;42.058;25.586;2023-04-08T11:01:41;21.83;;;16.03;;
7831;SDS011;3961;42.058;25.586;2023-04-08T11:06:43;15.10;;;13.03;;
7831;SDS011;3961;42.058;25.586;2023-04-08T11:09:11;22.70;;;15.57;;
7831;SDS011;3961;42.058;25.586;2023-04-08T11:11:37;16.67;;;11.67;;
7831;SDS011;3961;42.058;25.586;2023-04-08T11:14:03;10.60;;;8.07;;
7831;SDS011;3961;42.058;25.586;2023-04-08T11:16:30;11.40;;;8.53;;
7831;SDS011;3961;42.058;25.586;2023-04-08T11:18:56;11.80;;;9.50;;
7831;SDS011;3961;42.058;25.586;2023-04-08T11:21:22;9.17;;;8.17;;
7831;SDS011;3961;42.058;25.586;2023-04-08T11:23:48;11.87;;;7.27;;
7831;SDS011;3961;42.058;25.586;2023-04-08T11:26:15;9.17;;;7.53;;
7831;SDS011;3961;42.058;25.586;2023-04-08T11:28:41;11.10;;;8.73;;
7831;SDS011;3961;42.058;25.586;2023-04-08T11:31:07;11.27;;;8.73;;
7831;SDS011;3961;42.058;25.586;2023-04-08T11:33:33;10.57;;;8.67;;
7831;SDS011;3961;42.058;25.586;2023-04-08T11:36:00;7.77;;;6.73;;
7831;SDS011;3961;42.058;25.586;2023-04-08T11:38:28;10.37;;;6.57;;
7831;SDS011;3961;42.058;25.586;2023-04-08T11:40:56;10.80;;;7.70;;
7831;SDS011;3961;42.058;25.586;2023-04-08T11:43:23;11.90;;;10.60;;
7831;SDS011;3961;42.058;25.586;2023-04-08T11:45:49;7.47;;;5.90;;
7831;SDS011;3961;42.058;25.586;2023-04-08T11:48:15;7.07;;;5.37;;
7831;SDS011;3961;42.058;25.586;2023-04-08T11:50:41;9.20;;;6.37;;
7831;SDS011;3961;42.058;25.586;2023-04-08T11:56:19;7.43;;;5.27;;
7831;SDS011;3961;42.058;25.586;2023-04-08T11:58:48;6.17;;;5.20;;
7831;SDS011;3961;42.058;25.586;2023-04-08T12:01:14;13.93;;;5.83;;
7831;SDS011;3961;42.058;25.586;2023-04-08T12:03:52;6.23;;;5.40;;
7831;SDS011;3961;42.058;25.586;2023-04-08T12:06:18;5.70;;;5.10;;
7831;SDS011;3961;42.058;25.586;2023-04-08T12:08:44;5.30;;;4.57;;
7831;SDS011;3961;42.058;25.586;2023-04-08T12:11:09;5.70;;;5.00;;
7831;SDS011;3961;42.058;25.586;2023-04-08T12:13:36;6.53;;;5.80;;
7831;SDS011;3961;42.058;25.586;2023-04-08T12:16:02;4.97;;;4.40;;
7831;SDS011;3961;42.058;25.586;2023-04-08T12:18:27;5.97;;;4.13;;
7831;SDS011;3961;42.058;25.586;2023-04-08T12:20:53;5.70;;;4.10;;
7831;SDS011;3961;42.058;25.586;2023-04-08T12:23:19;5.67;;;3.70;;
7831;SDS011;3961;42.058;25.586;2023-04-08T12:25:44;5.17;;;3.80;;
7831;SDS011;3961;42.058;25.586;2023-04-08T12:28:09;5.27;;;4.33;;
7831;SDS011;3961;42.058;25.586;2023-04-08T12:30:35;5.47;;;4.83;;
7831;SDS011;3961;42.058;25.586;2023-04-08T12:33:01;6.17;;;5.57;;
7831;SDS011;3961;42.058;25.586;2023-04-08T12:35:27;7.60;;;6.80;;
7831;SDS011;3961;42.058;25.586;2023-04-08T12:37:52;9.50;;;6.10;;
7831;SDS011;3961;42.058;25.586;2023-04-08T12:40:18;9.07;;;6.10;;
7831;SDS011;3961;42.058;25.586;2023-04-08T12:42:43;6.50;;;5.80;;
7831;SDS011;3961;42.058;25.586;2023-04-08T12:45:09;10.60;;;7.50;;
7831;SDS011;3961;42.058;25.586;2023-04-08T12:47:34;9.40;;;6.93;;
7831;SDS011;3961;42.058;25.586;2023-04-08T12:50:00;8.77;;;6.30;;
7831;SDS011;3961;42.058;25.586;2023-04-08T12:52:26;11.83;;;5.80;;
7831;SDS011;3961;42.058;25.586;2023-04-08T12:54:51;7.50;;;5.23;;
7831;SDS011;3961;42.058;25.586;2023-04-08T12:57:17;9.63;;;7.30;;
7831;SDS011;3961;42.058;25.586;2023-04-08T12:59:42;9.30;;;7.07;;
7831;SDS011;3961;42.058;25.586;2023-04-08T13:02:08;11.03;;;7.00;;
7831;SDS011;3961;42.058;25.586;2023-04-08T13:04:33;9.67;;;6.20;;
7831;SDS011;3961;42.058;25.586;2023-04-08T13:06:59;10.13;;;7.23;;
7831;SDS011;3961;42.058;25.586;2023-04-08T13:09:25;13.40;;;6.80;;
7831;SDS011;3961;42.058;25.586;2023-04-08T13:11:50;7.23;;;5.20;;
7831;SDS011;3961;42.058;25.586;2023-04-08T13:14:16;13.30;;;6.23;;
7831;SDS011;3961;42.058;25.586;2023-04-08T13:16:41;7.27;;;5.43;;
7831;SDS011;3961;42.058;25.586;2023-04-08T13:19:06;5.87;;;5.23;;
7831;SDS011;3961;42.058;25.586;2023-04-08T13:21:32;6.00;;;5.20;;
7831;SDS011;3961;42.058;25.586;2023-04-08T13:23:57;7.80;;;6.87;;
7831;SDS011;3961;42.058;25.586;2023-04-08T13:26:23;8.93;;;5.70;;
7831;SDS011;3961;42.058;25.586;2023-04-08T13:28:49;6.53;;;5.50;;
7831;SDS011;3961;42.058;25.586;2023-04-08T13:31:17;6.00;;;4.73;;
7831;SDS011;3961;42.058;25.586;2023-04-08T13:33:42;5.90;;;4.73;;
7831;SDS011;3961;42.058;25.586;2023-04-08T13:36:08;8.97;;;5.57;;
7831;SDS011;3961;42.058;25.586;2023-04-08T13:38:33;7.83;;;5.13;;
7831;SDS011;3961;42.058;25.586;2023-04-08T13:41:00;6.27;;;5.00;;
7831;SDS011;3961;42.058;25.586;2023-04-08T13:43:27;7.97;;;5.23;;
7831;SDS011;3961;42.058;25.586;2023-04-08T13:45:52;5.03;;;4.43;;
7831;SDS011;3961;42.058;25.586;2023-04-08T13:48:18;6.27;;;5.47;;
7831;SDS011;3961;42.058;25.586;2023-04-08T13:50:43;7.23;;;4.63;;
7831;SDS011;3961;42.058;25.586;2023-04-08T13:53:09;5.23;;;4.50;;
7831;SDS011;3961;42.058;25.586;2023-04-08T13:55:34;5.70;;;4.60;;
7831;SDS011;3961;42.058;25.586;2023-04-08T13:58:00;5.03;;;4.53;;
7831;SDS011;3961;42.058;25.586;2023-04-08T14:00:26;5.30;;;4.80;;
7831;SDS011;3961;42.058;25.586;2023-04-08T14:02:52;5.77;;;4.93;;
7831;SDS011;3961;42.058;25.586;2023-04-08T14:05:17;5.67;;;4.30;;
7831;SDS011;3961;42.058;25.586;2023-04-08T14:07:43;4.90;;;4.13;;
7831;SDS011;3961;42.058;25.586;2023-04-08T14:10:08;6.47;;;4.67;;
7831;SDS011;3961;42.058;25.586;2023-04-08T14:12:34;6.73;;;4.50;;
7831;SDS011;3961;42.058;25.586;2023-04-08T14:15:00;6.10;;;4.33;;
7831;SDS011;3961;42.058;25.586;2023-04-08T14:17:26;7.07;;;4.57;;
7831;SDS011;3961;42.058;25.586;2023-04-08T14:19:52;5.10;;;4.60;;
7831;SDS011;3961;42.058;25.586;2023-04-08T14:22:17;5.70;;;4.40;;
7831;SDS011;3961;42.058;25.586;2023-04-08T14:24:43;7.13;;;4.90;;
7831;SDS011;3961;42.058;25.586;2023-04-08T14:27:09;10.13;;;4.70;;
7831;SDS011;3961;42.058;25.586;2023-04-08T14:29:34;5.97;;;4.40;;
7831;SDS011;3961;42.058;25.586;2023-04-08T14:32:00;5.13;;;4.30;;
7831;SDS011;3961;42.058;25.586;2023-04-08T14:34:25;5.97;;;4.97;;
7831;SDS011;3961;42.058;25.586;2023-04-08T14:36:51;6.57;;;5.50;;
7831;SDS011;3961;42.058;25.586;2023-04-08T14:39:16;6.93;;;5.60;;
7831;SDS011;3961;42.058;25.586;2023-04-08T14:41:42;6.37;;;5.00;;
7831;SDS011;3961;42.058;25.586;2023-04-08T14:44:07;6.90;;;5.50;;
7831;SDS011;3961;42.058;25.586;2023-04-08T14:46:33;6.97;;;4.80;;
7831;SDS011;3961;42.058;25.586;2023-04-08T14:48:58;9.10;;;4.93;;
7831;SDS011;3961;42.058;25.586;2023-04-08T14:51:25;7.23;;;5.77;;
7831;SDS011;3961;42.058;25.586;2023-04-08T14:53:50;5.80;;;4.80;;
7831;SDS011;3961;42.058;25.586;2023-04-08T14:56:16;6.17;;;5.13;;